Japan Airlines Virtual Airport Information Service

Macau International Airport

ICAO: VMMC Country: China
Latitude: 22.1495 Longitude: 113.591
Latest Arrival : KAL401 (ZJSY-VMMC) Latest Departure : CPA9803 (VMMC-VHHX)


WX CaptureLIVE
Data provided by noaa.gov | Fetched at 18:06:15

METAR : VMMC 291730Z 21003KT 9999 FEW012 SCT025 27/25 Q1007 TEMPO 4000 SHRA FEW010CB SCT020

TAF : VMMC 291700Z 2918/3024 10008KT 9999 FEW015 SCT025 TEMPO 2918/2924 03010KT 3500 SHRA FEW010CB SCT020 TEMPO 3004/3009 VRB15G25KT 2500 TSRA FEW008CB SCT015 TEMPO 3009/3015 09018G28KT 4000 SHRA FEW010CB SCT015


Runway Data for VMMC
Data provided by openaviationdata.com

Runway ID Mag Var Hdg Length Elevation Surface ILS Freq ILS Id ILS Slope
16 -2 163° 11048 ft 20 ft Concrete 111.7 MCS 0
34 -2 343° 11048 ft 20 ft Concrete 109.7 MCN 3

Macau International Airport, China
Use only for reference purposes



Not for navigational purposes.